Stewarts Point, California
Current Conditions -  °F | °C
As of 11:56 AM on Thursday 30 Oct 2014 (Local Time) from KUKI Reporting Station
Clear Clear  
Wind Chill: 68°   Ceiling: Unl
Heat Index: 68°   Visibility: 10mi
Dew Point: 55°   Wind: 0mph
Humidity: 63%   Direction: NA
Pressure: 29.92"   Gusts: NA
Location:  38.7°N, 123.43°W
Report Text: KUKI 301856Z AUTO 00000KT 10SM CLR 20/13 A2992 RMK AO2 SLP127 T02000128
Loading
Personal Weather Stations






























Interactive Weather Map
Tropical Storm Tracking
New forecast layout! Learn more

10-Day Weather Forecast

Advertisements
Track Severe Weather on mobile